Bartlett, Tennessee
Current Conditions -  °F | °C
As of 12:50 PM on Friday 21 Nov 2014 (Local Time) from KNQA Reporting Station
Broken Clouds Broken Clouds  
Wind Chill: 55°   Ceiling: 9500
Heat Index: 55°   Visibility: 10mi
Dew Point: 36°   Wind: 6mph
Humidity: 47%   Direction: NA
Pressure: 30.31"   Gusts: NA
Location:  35.2°N, 89.85°W
Report Text: KNQA 211850Z VRB05KT 10SM FEW019 SCT040 BKN095 13/02 A3031
Loading
Personal Weather Stations






























Interactive Weather Map New forecast layout! Learn more

10-Day Weather Forecast

Advertisements
Track Severe Weather on mobile